createdAt,value
2022-09-25T00:01:24.681Z,7.88
2022-09-25T00:03:51.248Z,8.15
2022-09-25T00:06:20.456Z,8.73
2022-09-25T00:08:47.025Z,8.70
2022-09-25T00:11:17.202Z,7.85
2022-09-25T00:13:45.759Z,8.73
2022-09-25T00:16:15.154Z,8.07
2022-09-25T00:19:01.238Z,6.80
2022-09-25T00:21:30.866Z,9.50
2022-09-25T00:24:03.097Z,7.18
2022-09-25T00:26:31.370Z,7.55
2022-09-25T00:29:00.442Z,8.15
2022-09-25T00:31:28.743Z,7.22
2022-09-25T00:33:59.512Z,9.38
2022-09-25T00:36:26.209Z,7.60
2022-09-25T00:38:53.044Z,8.48
2022-09-25T00:41:21.594Z,6.90
2022-09-25T00:43:51.116Z,6.35
2022-09-25T00:46:20.975Z,9.25
2022-09-25T00:48:56.197Z,11.35
2022-09-25T00:51:29.725Z,6.38
2022-09-25T00:54:03.733Z,8.55
2022-09-25T00:56:37.574Z,8.00
2022-09-25T00:59:07.211Z,6.95
2022-09-25T01:01:33.799Z,7.53
2022-09-25T01:04:00.649Z,7.53
2022-09-25T01:06:27.779Z,8.68
2022-09-25T01:08:55.518Z,8.07
2022-09-25T01:11:21.998Z,5.25
2022-09-25T01:13:49.116Z,8.10
2022-09-25T01:16:38.597Z,6.65
2022-09-25T01:19:26.464Z,5.75
2022-09-25T01:21:59.352Z,9.38
2022-09-25T01:24:49.481Z,8.13
2022-09-25T01:27:21.999Z,8.80
2022-09-25T01:30:11.200Z,7.85
2022-09-25T01:32:55.658Z,6.20
2022-09-25T01:35:40.929Z,8.75
2022-09-25T01:38:22.915Z,6.38
2022-09-25T01:43:31.104Z,7.97
2022-09-25T01:46:05.859Z,9.30
2022-09-25T01:48:34.793Z,6.45
2022-09-25T01:51:07.082Z,7.72
2022-09-25T01:53:42.538Z,6.80
2022-09-25T01:56:18.860Z,9.23
2022-09-25T01:58:54.671Z,7.35
2022-09-25T02:01:30.579Z,7.93
2022-09-25T02:04:03.461Z,8.95
2022-09-25T02:06:33.061Z,8.18
2022-09-25T02:09:04.652Z,7.38
2022-09-25T02:11:39.797Z,8.52
2022-09-25T02:14:18.285Z,4.38
2022-09-25T02:16:50.120Z,6.30
2022-09-25T02:22:07.993Z,11.02
2022-09-25T02:24:58.933Z,5.95
2022-09-25T02:27:28.301Z,9.38
2022-09-25T02:29:56.369Z,7.15
2022-09-25T02:32:28.761Z,5.20
2022-09-25T02:34:57.736Z,8.10
2022-09-25T02:37:24.270Z,5.78
2022-09-25T02:39:54.392Z,5.97
2022-09-25T02:42:39.948Z,5.90
2022-09-25T02:45:12.088Z,6.63
2022-09-25T02:48:05.544Z,4.57
2022-09-25T02:50:47.224Z,7.78
2022-09-25T02:53:21.695Z,7.15
2022-09-25T02:55:58.496Z,7.72
2022-09-25T02:58:35.425Z,5.30
2022-09-25T03:01:05.777Z,5.53
2022-09-25T03:03:34.958Z,5.20
2022-09-25T03:06:03.521Z,6.45
2022-09-25T03:08:39.104Z,6.35
2022-09-25T03:11:07.865Z,5.80
2022-09-25T03:13:35.006Z,8.80
2022-09-25T03:16:36.059Z,6.55
2022-09-25T03:19:02.767Z,8.20
2022-09-25T03:21:29.293Z,6.28
2022-09-25T03:23:58.763Z,6.88
2022-09-25T03:26:27.223Z,8.38
2022-09-25T03:28:54.176Z,9.25
2022-09-25T03:31:20.806Z,8.13
2022-09-25T03:33:48.965Z,8.70
2022-09-25T03:36:21.451Z,5.55
2022-09-25T03:38:51.342Z,7.30
2022-09-25T03:41:21.134Z,7.18
2022-09-25T03:43:51.217Z,7.38
2022-09-25T03:46:20.795Z,5.32
2022-09-25T03:48:47.458Z,8.00
2022-09-25T03:51:14.277Z,8.00
2022-09-25T03:53:41.084Z,7.07
2022-09-25T03:56:11.336Z,7.78
2022-09-25T03:58:38.589Z,6.03
2022-09-25T04:01:06.258Z,6.68
2022-09-25T04:03:33.992Z,6.68
2022-09-25T04:06:04.786Z,7.85
2022-09-25T04:08:33.062Z,8.15
2022-09-25T04:11:00.409Z,9.93
2022-09-25T04:13:32.082Z,6.18
2022-09-25T04:16:01.183Z,6.57
2022-09-25T04:18:31.723Z,6.93
2022-09-25T04:21:03.306Z,8.27
2022-09-25T04:23:29.814Z,7.85
2022-09-25T04:25:57.033Z,6.35
2022-09-25T04:28:24.148Z,6.53
2022-09-25T04:30:51.081Z,7.63
2022-09-25T04:33:36.648Z,6.45
2022-09-25T04:36:04.476Z,7.00
2022-09-25T04:38:32.294Z,6.88
2022-09-25T04:41:00.188Z,7.22
2022-09-25T04:43:32.063Z,8.98
2022-09-25T04:48:29.628Z,6.82
2022-09-25T04:50:56.515Z,8.13
2022-09-25T04:53:22.977Z,6.82
2022-09-25T04:55:49.472Z,8.15
2022-09-25T04:58:15.950Z,8.68
2022-09-25T05:00:42.651Z,8.05
2022-09-25T05:03:09.404Z,6.90
2022-09-25T05:05:36.081Z,8.73
2022-09-25T05:08:03.369Z,6.75
2022-09-25T05:10:32.640Z,10.98
2022-09-25T05:13:03.989Z,7.90
2022-09-25T05:15:32.114Z,6.75
2022-09-25T05:18:01.530Z,8.35
2022-09-25T05:20:28.338Z,8.50
2022-09-25T05:22:57.879Z,8.07
2022-09-25T05:25:25.776Z,8.70
2022-09-25T05:27:55.677Z,8.25
2022-09-25T05:30:22.776Z,9.52
2022-09-25T05:32:53.290Z,7.40
2022-09-25T05:35:22.061Z,7.63
2022-09-25T05:37:48.591Z,9.25
2022-09-25T05:40:17.662Z,8.43
2022-09-25T05:42:45.003Z,8.02
2022-09-25T05:45:12.530Z,7.68
2022-09-25T05:47:40.006Z,8.20
2022-09-25T05:50:07.754Z,8.80
2022-09-25T05:52:35.358Z,9.20
2022-09-25T05:55:03.365Z,8.95
2022-09-25T05:57:34.180Z,9.25
2022-09-25T06:00:01.692Z,9.13
2022-09-25T06:02:38.305Z,8.52
2022-09-25T06:05:05.258Z,8.20
2022-09-25T06:07:31.746Z,8.45
2022-09-25T06:09:58.238Z,8.93
2022-09-25T06:12:24.718Z,8.70
2022-09-25T06:14:52.348Z,8.48
2022-09-25T06:17:19.035Z,10.02
2022-09-25T06:19:45.870Z,8.27
2022-09-25T06:22:12.366Z,7.82
2022-09-25T06:24:38.916Z,8.77
2022-09-25T06:27:08.881Z,10.32
2022-09-25T06:29:36.023Z,11.32
2022-09-25T06:32:03.464Z,9.88
2022-09-25T06:34:29.990Z,10.38
2022-09-25T06:36:56.474Z,8.57
2022-09-25T06:39:22.975Z,14.32
2022-09-25T06:41:52.855Z,9.93
2022-09-25T06:44:22.371Z,9.90
2022-09-25T06:46:50.156Z,10.27
2022-09-25T06:49:16.762Z,10.00
2022-09-25T06:51:43.250Z,9.35
2022-09-25T06:54:09.908Z,9.50
2022-09-25T06:56:36.454Z,9.90
2022-09-25T06:59:03.027Z,11.68
2022-09-25T07:01:29.632Z,11.48
2022-09-25T07:03:56.170Z,9.38
2022-09-25T07:06:26.799Z,9.27
2022-09-25T07:08:53.303Z,10.23
2022-09-25T07:11:22.044Z,10.23
2022-09-25T07:13:54.861Z,10.02
2022-09-25T07:16:29.626Z,9.35
2022-09-25T07:19:03.985Z,8.63
2022-09-25T07:21:32.069Z,8.40
2022-09-25T07:23:58.814Z,10.55
2022-09-25T07:26:28.341Z,11.05
2022-09-25T07:28:56.483Z,9.32
2022-09-25T07:31:26.158Z,8.13
2022-09-25T07:33:52.868Z,8.13
2022-09-25T07:36:19.867Z,8.95
2022-09-25T07:38:53.405Z,8.32
2022-09-25T07:41:22.599Z,10.77
2022-09-25T07:44:06.294Z,9.77
2022-09-25T07:46:43.418Z,8.07
2022-09-25T07:49:09.984Z,8.55
2022-09-25T07:51:36.505Z,10.80
2022-09-25T07:54:03.036Z,7.50
2022-09-25T07:56:29.533Z,8.68
2022-09-25T07:58:56.003Z,8.60
2022-09-25T08:01:22.552Z,7.30
2022-09-25T08:03:49.315Z,9.05
2022-09-25T08:06:15.854Z,11.07
2022-09-25T08:08:44.058Z,7.60
2022-09-25T08:11:13.086Z,9.85
2022-09-25T08:13:41.049Z,9.15
2022-09-25T08:16:13.909Z,7.50
2022-09-25T08:18:42.646Z,7.20
2022-09-25T08:21:10.524Z,8.43
2022-09-25T08:23:37.105Z,9.18
2022-09-25T08:26:03.646Z,6.70
2022-09-25T08:28:30.128Z,6.32
2022-09-25T08:30:59.493Z,5.45
2022-09-25T08:33:26.271Z,7.80
2022-09-25T08:36:00.993Z,7.90
2022-09-25T08:38:28.628Z,6.18
2022-09-25T08:41:02.034Z,7.30
2022-09-25T08:43:30.181Z,6.80
2022-09-25T08:46:19.086Z,6.82
2022-09-25T08:49:02.082Z,6.03
2022-09-25T08:51:45.628Z,7.43
2022-09-25T08:54:22.427Z,6.25
2022-09-25T08:56:51.536Z,5.13
2022-09-25T08:59:40.506Z,6.63
2022-09-25T09:02:23.345Z,6.53
2022-09-25T09:04:56.247Z,5.50
2022-09-25T09:07:28.095Z,7.93
2022-09-25T09:10:08.457Z,4.70
2022-09-25T09:12:48.387Z,6.05
2022-09-25T09:15:23.752Z,6.75
2022-09-25T09:17:50.297Z,5.88
2022-09-25T09:20:27.679Z,7.35
2022-09-25T09:22:57.577Z,8.55
2022-09-25T09:25:48.187Z,5.85
2022-09-25T09:28:48.315Z,5.93
2022-09-25T09:31:51.583Z,5.47
2022-09-25T09:35:00.927Z,9.00
2022-09-25T09:37:51.225Z,3.88
2022-09-25T09:40:51.759Z,5.88
2022-09-25T09:43:57.775Z,3.88
2022-09-25T09:46:48.608Z,5.50
2022-09-25T09:49:22.085Z,5.20
2022-09-25T09:52:01.367Z,4.07
2022-09-25T09:54:38.553Z,4.60
2022-09-25T09:57:12.945Z,5.60
2022-09-25T09:59:49.048Z,5.95
2022-09-25T10:02:38.040Z,4.47
2022-09-25T10:05:12.808Z,4.82
2022-09-25T10:07:42.266Z,5.57
2022-09-25T10:10:16.912Z,4.25
2022-09-25T10:12:54.960Z,4.15
2022-09-25T10:15:30.094Z,3.72
2022-09-25T10:18:00.846Z,4.35
2022-09-25T10:20:39.553Z,6.00
2022-09-25T10:23:06.494Z,4.18
2022-09-25T10:25:39.047Z,4.70
2022-09-25T10:28:37.835Z,6.63
2022-09-25T10:31:08.841Z,4.22
2022-09-25T10:33:35.594Z,3.92
2022-09-25T10:36:02.265Z,4.13
2022-09-25T10:38:29.298Z,6.22
2022-09-25T10:41:09.307Z,4.05
2022-09-25T10:43:50.936Z,3.92
2022-09-25T10:46:47.034Z,4.22
2022-09-25T10:50:04.042Z,5.63
2022-09-25T10:52:46.017Z,5.35
2022-09-25T10:55:34.970Z,4.90
2022-09-25T10:58:10.499Z,3.80
2022-09-25T11:00:41.883Z,3.80
2022-09-25T11:03:20.331Z,4.35
2022-09-25T11:06:01.446Z,4.05
2022-09-25T11:08:30.436Z,4.38
2022-09-25T11:10:59.145Z,5.50
2022-09-25T11:13:36.813Z,4.55
2022-09-25T11:16:10.286Z,4.00
2022-09-25T11:18:51.134Z,3.95
2022-09-25T11:21:43.061Z,4.90
2022-09-25T11:27:31.227Z,4.18
2022-09-25T11:30:10.503Z,4.25
2022-09-25T11:32:54.450Z,4.72
2022-09-25T11:35:26.748Z,4.05
2022-09-25T11:38:44.598Z,4.28
2022-09-25T11:41:22.966Z,4.22
2022-09-25T11:43:57.932Z,4.40
2022-09-25T11:46:35.437Z,4.25
2022-09-25T11:49:22.413Z,4.50
2022-09-25T11:52:20.224Z,4.20
2022-09-25T11:55:07.982Z,4.25
2022-09-25T11:57:43.609Z,4.40
2022-09-25T12:00:20.177Z,4.78
2022-09-25T12:03:13.189Z,4.60
2022-09-25T12:06:05.185Z,4.60
2022-09-25T12:09:07.025Z,4.68
2022-09-25T12:11:50.473Z,4.88
2022-09-25T12:14:34.476Z,4.85
2022-09-25T12:17:12.738Z,4.47
2022-09-25T12:19:50.005Z,4.50
2022-09-25T12:22:26.127Z,4.57
2022-09-25T12:24:55.500Z,5.00
2022-09-25T12:27:40.649Z,4.90
2022-09-25T12:30:16.559Z,4.88
2022-09-25T12:33:24.410Z,5.18
2022-09-25T12:36:22.483Z,5.20
2022-09-25T12:39:08.476Z,5.20
2022-09-25T12:41:50.722Z,5.30
2022-09-25T12:44:27.597Z,4.80
2022-09-25T12:47:01.850Z,4.82
2022-09-25T12:50:00.416Z,4.85
2022-09-25T12:52:34.717Z,4.90
2022-09-25T12:55:13.598Z,5.07
2022-09-25T12:57:50.118Z,4.53
2022-09-25T13:00:21.263Z,4.63
2022-09-25T13:03:11.233Z,5.00
2022-09-25T13:05:45.300Z,4.80
2022-09-25T13:08:27.013Z,4.78
2022-09-25T13:13:26.963Z,5.97
2022-09-25T13:15:57.055Z,4.40
2022-09-25T13:18:27.101Z,4.40
2022-09-25T13:20:55.594Z,4.07
2022-09-25T13:23:35.946Z,4.38
2022-09-25T13:26:09.759Z,4.25
2022-09-25T13:28:40.391Z,4.20
2022-09-25T13:31:12.125Z,3.83
2022-09-25T13:33:46.712Z,4.20
2022-09-25T13:36:39.589Z,3.70
2022-09-25T13:39:36.693Z,4.00
2022-09-25T13:42:07.550Z,3.90
2022-09-25T13:45:00.906Z,4.85
2022-09-25T13:47:27.307Z,4.30
2022-09-25T13:50:11.772Z,4.32
2022-09-25T13:52:41.257Z,4.53
2022-09-25T13:55:19.391Z,4.22
2022-09-25T13:57:55.738Z,4.68
2022-09-25T14:00:23.229Z,4.70
2022-09-25T14:02:50.352Z,4.40
2022-09-25T14:05:21.846Z,4.50
2022-09-25T14:10:17.963Z,4.47
2022-09-25T14:12:48.061Z,4.63
2022-09-25T14:15:35.371Z,4.32
2022-09-25T14:18:08.297Z,4.60
2022-09-25T14:20:44.323Z,4.65
2022-09-25T14:23:24.558Z,5.05
2022-09-25T14:26:08.671Z,4.22
2022-09-25T14:28:47.473Z,4.50
2022-09-25T14:31:29.268Z,4.45
2022-09-25T14:34:12.963Z,5.22
2022-09-25T14:37:00.381Z,5.28
2022-09-25T14:39:48.644Z,5.53
2022-09-25T14:42:37.436Z,5.10
2022-09-25T14:45:25.330Z,4.90
2022-09-25T14:47:55.897Z,4.70
2022-09-25T14:50:26.257Z,4.43
2022-09-25T14:52:57.996Z,4.38
2022-09-25T14:55:28.817Z,4.53
2022-09-25T14:57:58.109Z,4.68
2022-09-25T15:00:24.845Z,4.70
2022-09-25T15:02:55.120Z,4.88
2022-09-25T15:05:21.605Z,5.18
2022-09-25T15:07:48.125Z,4.90
2022-09-25T15:10:41.045Z,5.78
2022-09-25T15:13:19.834Z,5.18
2022-09-25T15:16:14.171Z,4.43
2022-09-25T15:18:42.876Z,4.63
2022-09-25T15:21:33.483Z,4.68
2022-09-25T15:24:05.031Z,4.70
2022-09-25T15:26:33.260Z,4.80
2022-09-25T15:28:59.959Z,4.53
2022-09-25T15:31:26.590Z,4.55
2022-09-25T15:34:24.220Z,4.50
2022-09-25T15:36:51.480Z,3.95
2022-09-25T15:39:25.976Z,4.00
2022-09-25T15:41:52.587Z,4.45
2022-09-25T15:44:24.664Z,4.20
2022-09-25T15:46:54.180Z,4.05
2022-09-25T15:49:27.944Z,4.00
2022-09-25T15:52:00.197Z,4.20
2022-09-25T15:54:38.389Z,4.57
2022-09-25T15:57:13.628Z,4.10
2022-09-25T16:00:05.423Z,4.28
2022-09-25T16:05:32.784Z,4.10
2022-09-25T16:08:23.994Z,3.90
2022-09-25T16:11:05.065Z,3.72
2022-09-25T16:13:32.788Z,3.67
2022-09-25T16:15:59.529Z,5.65
2022-09-25T16:18:36.191Z,4.28
2022-09-25T16:21:14.660Z,3.85
2022-09-25T16:23:42.981Z,4.35
2022-09-25T16:26:22.451Z,5.40
2022-09-25T16:28:55.739Z,4.80
2022-09-25T16:31:24.978Z,4.43
2022-09-25T16:33:55.913Z,4.40
2022-09-25T16:36:24.681Z,5.00
2022-09-25T16:39:12.912Z,5.00
2022-09-25T16:41:46.022Z,4.57
2022-09-25T16:44:25.196Z,4.25
2022-09-25T16:46:52.172Z,4.57
2022-09-25T16:49:22.094Z,4.63
2022-09-25T16:51:51.160Z,5.25
2022-09-25T16:54:19.984Z,5.63
2022-09-25T16:56:48.000Z,5.10
2022-09-25T16:59:22.056Z,5.30
2022-09-25T17:01:51.516Z,5.10
2022-09-25T17:04:23.761Z,5.15
2022-09-25T17:06:50.349Z,5.13
2022-09-25T17:09:17.940Z,5.47
2022-09-25T17:11:46.764Z,5.70
2022-09-25T17:14:24.396Z,5.13
2022-09-25T17:16:52.539Z,4.68
2022-09-25T17:19:20.155Z,4.13
2022-09-25T17:21:50.053Z,4.30
2022-09-25T17:24:18.467Z,3.92
2022-09-25T17:26:45.312Z,3.90
2022-09-25T17:29:12.128Z,3.83
2022-09-25T17:31:39.657Z,3.92
2022-09-25T17:34:16.157Z,4.03
2022-09-25T17:36:42.812Z,4.22
2022-09-25T17:39:09.549Z,4.20
2022-09-25T17:41:37.033Z,5.03
2022-09-25T17:44:04.657Z,5.20
2022-09-25T17:46:35.924Z,5.32
2022-09-25T17:49:03.569Z,6.43
2022-09-25T17:51:30.522Z,5.50
2022-09-25T17:53:59.219Z,4.57
2022-09-25T17:56:29.422Z,4.57
2022-09-25T17:58:57.467Z,4.20
2022-09-25T18:01:27.950Z,4.50
2022-09-25T18:03:56.598Z,4.18
2022-09-25T18:06:24.397Z,5.00
2022-09-25T18:08:51.741Z,5.00
2022-09-25T18:11:18.276Z,5.00
2022-09-25T18:13:45.298Z,5.22
2022-09-25T18:16:21.702Z,5.03
2022-09-25T18:19:07.035Z,4.95
2022-09-25T18:21:56.550Z,4.70
2022-09-25T18:24:23.197Z,4.88
2022-09-25T18:26:53.608Z,5.22
2022-09-25T18:29:21.570Z,5.90
2022-09-25T18:31:48.736Z,7.20
2022-09-25T18:34:15.965Z,7.60
2022-09-25T18:36:43.024Z,9.38
2022-09-25T18:39:10.398Z,9.55
2022-09-25T18:41:38.152Z,9.52
2022-09-25T18:44:07.285Z,8.77
2022-09-25T18:46:35.791Z,9.90
2022-09-25T18:49:02.472Z,9.98
2022-09-25T18:51:28.968Z,10.63
2022-09-25T18:53:55.929Z,9.90
2022-09-25T18:56:22.515Z,11.38
2022-09-25T18:58:49.793Z,11.90
2022-09-25T19:01:16.379Z,11.43
2022-09-25T19:03:43.079Z,10.38
2022-09-25T19:06:09.900Z,10.05
2022-09-25T19:08:36.394Z,10.13
2022-09-25T19:11:02.985Z,9.85
2022-09-25T19:13:30.140Z,10.30
2022-09-25T19:15:58.594Z,9.40
2022-09-25T19:18:25.150Z,9.20
2022-09-25T19:20:54.210Z,9.40
2022-09-25T19:23:22.163Z,9.13
2022-09-25T19:25:53.573Z,9.65
2022-09-25T19:28:23.544Z,9.02
2022-09-25T19:31:03.303Z,7.97
2022-09-25T19:33:33.276Z,8.18
2022-09-25T19:36:02.869Z,7.50
2022-09-25T19:38:35.633Z,7.10
2022-09-25T19:41:02.195Z,7.30
2022-09-25T19:43:28.785Z,8.05
2022-09-25T19:45:56.249Z,7.47
2022-09-25T19:48:23.989Z,7.80
2022-09-25T19:50:50.582Z,7.13
2022-09-25T19:53:18.831Z,7.18
2022-09-25T19:55:54.717Z,7.20
2022-09-25T19:58:23.564Z,7.10
2022-09-25T20:00:50.944Z,6.90
2022-09-25T20:03:17.989Z,6.85
2022-09-25T20:05:44.566Z,7.13
2022-09-25T20:08:11.523Z,6.68
2022-09-25T20:10:38.083Z,6.80
2022-09-25T20:13:06.119Z,6.85
2022-09-25T20:15:33.665Z,6.63
2022-09-25T20:18:00.503Z,6.70
2022-09-25T20:20:29.244Z,6.53
2022-09-25T20:22:56.403Z,7.38
2022-09-25T20:25:23.451Z,7.70
2022-09-25T20:27:51.185Z,7.00
2022-09-25T20:30:18.858Z,6.53
2022-09-25T20:32:45.885Z,6.93
2022-09-25T20:35:12.480Z,7.82
2022-09-25T20:37:39.186Z,7.15
2022-09-25T20:40:06.886Z,7.13
2022-09-25T20:42:33.902Z,6.85
2022-09-25T20:45:00.471Z,7.13
2022-09-25T20:47:33.345Z,6.47
2022-09-25T20:50:00.795Z,6.43
2022-09-25T20:52:28.243Z,6.93
2022-09-25T20:54:56.323Z,6.97
2022-09-25T20:57:22.881Z,7.30
2022-09-25T20:59:49.419Z,7.95
2022-09-25T21:02:15.961Z,7.90
2022-09-25T21:04:44.849Z,7.78
2022-09-25T21:07:15.996Z,7.72
2022-09-25T21:09:43.600Z,8.10
2022-09-25T21:12:10.164Z,8.32
2022-09-25T21:14:36.978Z,8.25
2022-09-25T21:17:03.810Z,8.05
2022-09-25T21:19:31.693Z,8.52
2022-09-25T21:21:58.189Z,8.88
2022-09-25T21:24:24.728Z,8.35
2022-09-25T21:26:51.272Z,7.80
2022-09-25T21:29:18.584Z,7.82
2022-09-25T21:31:49.962Z,7.63
2022-09-25T21:34:17.754Z,8.02
2022-09-25T21:36:44.276Z,7.95
2022-09-25T21:39:11.632Z,7.68
2022-09-25T21:41:38.293Z,8.00
2022-09-25T21:44:07.667Z,7.82
2022-09-25T21:46:34.831Z,7.80
2022-09-25T21:49:03.922Z,7.63
2022-09-25T21:51:33.193Z,7.40
2022-09-25T21:54:00.978Z,7.95
2022-09-25T21:56:30.329Z,7.57
2022-09-25T21:58:57.928Z,9.45
2022-09-25T22:01:29.249Z,7.50
2022-09-25T22:03:57.696Z,7.35
2022-09-25T22:06:27.201Z,7.35
2022-09-25T22:08:59.587Z,8.02
2022-09-25T22:11:26.985Z,7.72
2022-09-25T22:13:55.827Z,7.47
2022-09-25T22:16:28.311Z,7.75
2022-09-25T22:19:19.339Z,8.40
2022-09-25T22:21:47.912Z,7.05
2022-09-25T22:24:14.859Z,7.80
2022-09-25T22:26:43.431Z,7.43
2022-09-25T22:29:10.635Z,7.57
2022-09-25T22:31:38.476Z,7.57
2022-09-25T22:34:08.007Z,7.45
2022-09-25T22:36:38.730Z,7.95
2022-09-25T22:39:06.359Z,7.40
2022-09-25T22:41:33.126Z,8.07
2022-09-25T22:44:00.909Z,7.10
2022-09-25T22:46:28.427Z,7.60
2022-09-25T22:48:55.158Z,9.88
2022-09-25T22:51:23.822Z,7.45
2022-09-25T22:53:51.269Z,7.55
2022-09-25T22:56:20.981Z,7.30
2022-09-25T22:58:50.339Z,6.97
2022-09-25T23:01:20.980Z,7.32
2022-09-25T23:03:47.567Z,7.50
2022-09-25T23:06:14.389Z,7.05
2022-09-25T23:08:40.929Z,7.25
2022-09-25T23:11:08.453Z,7.25
2022-09-25T23:13:36.478Z,6.90
2022-09-25T23:16:07.981Z,7.55
2022-09-25T23:18:36.522Z,7.25
2022-09-25T23:21:04.097Z,7.03
2022-09-25T23:23:30.539Z,7.10
2022-09-25T23:26:01.925Z,8.20
2022-09-25T23:28:28.494Z,6.90
2022-09-25T23:30:55.037Z,6.95
2022-09-25T23:33:21.544Z,7.15
2022-09-25T23:35:48.008Z,6.78
2022-09-25T23:38:14.452Z,7.00
2022-09-25T23:40:41.054Z,6.85
2022-09-25T23:43:07.627Z,6.93
2022-09-25T23:45:34.208Z,7.03
2022-09-25T23:48:00.818Z,6.93
2022-09-25T23:50:27.298Z,8.25
2022-09-25T23:52:53.762Z,6.78
2022-09-25T23:55:20.312Z,7.90
2022-09-25T23:57:46.840Z,7.10
